createdAt,value
2018-07-10T00:00:10.771Z,2.00
2018-07-10T00:03:21.631Z,2.27
2018-07-10T00:08:03.448Z,2.07
2018-07-10T00:10:39.253Z,1.43
2018-07-10T00:13:08.034Z,2.60
2018-07-10T00:15:36.756Z,1.50
2018-07-10T00:18:05.025Z,1.60
2018-07-10T00:20:33.520Z,2.30
2018-07-10T00:23:01.622Z,2.60
2018-07-10T00:25:30.173Z,1.60
2018-07-10T00:27:58.576Z,1.90
2018-07-10T00:30:26.773Z,1.50
2018-07-10T00:32:54.954Z,1.87
2018-07-10T00:35:23.175Z,1.87
2018-07-10T00:38:02.731Z,1.90
2018-07-10T00:40:31.344Z,2.00
2018-07-10T00:43:00.724Z,2.37
2018-07-10T00:45:28.870Z,2.00
2018-07-10T00:47:58.220Z,2.90
2018-07-10T00:50:26.498Z,2.20
2018-07-10T00:52:54.776Z,2.10
2018-07-10T00:55:23.055Z,2.37
2018-07-10T00:57:51.385Z,3.40
2018-07-10T01:00:30.577Z,2.40
2018-07-10T01:02:58.772Z,3.07
2018-07-10T01:05:26.989Z,2.40
2018-07-10T01:07:55.945Z,2.10
2018-07-10T01:10:24.233Z,2.50
2018-07-10T01:12:52.521Z,2.37
2018-07-10T01:15:22.101Z,2.47
2018-07-10T01:17:50.527Z,2.73
2018-07-10T01:20:19.650Z,2.80
2018-07-10T01:22:47.967Z,2.60
2018-07-10T01:25:16.495Z,2.60
2018-07-10T01:27:44.879Z,2.40
2018-07-10T01:30:13.145Z,2.77
2018-07-10T01:37:18.199Z,2.90
2018-07-10T01:39:46.469Z,3.07
2018-07-10T01:42:14.729Z,2.87
2018-07-10T01:44:42.933Z,3.40
2018-07-10T01:47:11.363Z,3.33
2018-07-10T01:49:39.607Z,3.20
2018-07-10T01:52:07.833Z,3.60
2018-07-10T01:54:36.210Z,2.90
2018-07-10T01:57:04.503Z,2.90
2018-07-10T01:59:32.768Z,4.10
2018-07-10T02:02:00.974Z,3.87
2018-07-10T02:04:29.269Z,2.90
2018-07-10T02:06:57.499Z,3.53
2018-07-10T02:09:25.761Z,4.43
2018-07-10T02:11:54.184Z,3.17
2018-07-10T02:14:22.475Z,3.70
2018-07-10T02:16:50.759Z,3.50
2018-07-10T02:19:19.845Z,3.77
2018-07-10T02:21:48.051Z,3.80
2018-07-10T02:24:19.303Z,3.37
2018-07-10T02:26:47.655Z,4.40
2018-07-10T02:29:15.955Z,3.57
2018-07-10T02:31:44.163Z,4.10
2018-07-10T02:34:12.391Z,4.40
2018-07-10T02:36:40.655Z,3.80
2018-07-10T02:39:08.979Z,3.80
2018-07-10T02:41:37.273Z,2.90
2018-07-10T02:44:06.217Z,3.40
2018-07-10T02:46:35.524Z,3.67
2018-07-10T02:49:09.332Z,2.60
2018-07-10T02:51:40.377Z,3.63
2018-07-10T02:54:08.677Z,2.90
2018-07-10T02:56:36.903Z,4.40
2018-07-10T02:59:05.177Z,4.10
2018-07-10T03:01:33.383Z,4.67
2018-07-10T03:04:01.625Z,3.57
2018-07-10T03:06:32.485Z,4.30
2018-07-10T03:09:00.819Z,4.10
2018-07-10T03:11:29.101Z,4.40
2018-07-10T03:13:57.383Z,4.63
2018-07-10T03:16:25.579Z,4.43
2018-07-10T03:18:53.872Z,3.93
2018-07-10T03:21:22.151Z,4.50
2018-07-10T03:23:50.438Z,3.80
2018-07-10T03:26:18.658Z,3.40
2018-07-10T03:28:46.912Z,3.47
2018-07-10T03:31:15.338Z,4.40
2018-07-10T03:33:43.575Z,3.20
2018-07-10T03:36:11.845Z,3.30
2018-07-10T03:38:40.145Z,2.20
2018-07-10T03:41:08.435Z,3.07
2018-07-10T03:43:36.425Z,3.13
2018-07-10T03:46:04.906Z,3.13
2018-07-10T03:48:33.191Z,3.43
2018-07-10T03:51:01.457Z,3.63
2018-07-10T03:53:29.748Z,3.90
2018-07-10T03:55:58.041Z,4.37
2018-07-10T03:58:26.257Z,3.77
2018-07-10T04:00:54.504Z,3.90
2018-07-10T04:03:24.505Z,4.07
2018-07-10T04:05:52.637Z,4.37
2018-07-10T04:08:20.920Z,4.47
2018-07-10T04:10:49.121Z,4.77
2018-07-10T04:13:20.100Z,4.93
2018-07-10T04:15:49.105Z,5.47
2018-07-10T04:18:20.981Z,4.97
2018-07-10T04:21:00.669Z,4.43
2018-07-10T04:23:34.521Z,5.60
2018-07-10T04:26:05.426Z,4.80
2018-07-10T04:28:34.940Z,4.57
2018-07-10T04:31:28.736Z,5.20
2018-07-10T04:33:57.159Z,4.43
2018-07-10T04:36:25.425Z,4.90
2018-07-10T04:38:56.422Z,3.57
2018-07-10T04:41:28.541Z,3.13
2018-07-10T04:44:06.921Z,3.20
2018-07-10T04:46:40.027Z,4.07
2018-07-10T04:49:48.682Z,2.67
2018-07-10T04:52:24.572Z,3.50
2018-07-10T04:54:58.709Z,3.13
2018-07-10T04:57:30.760Z,3.43
2018-07-10T05:00:01.421Z,3.03
2018-07-10T05:02:29.620Z,3.00
2018-07-10T05:04:57.917Z,2.20
2018-07-10T05:07:26.170Z,3.17
2018-07-10T05:09:55.002Z,2.10
2018-07-10T05:12:23.418Z,2.27
2018-07-10T05:14:52.346Z,2.90
2018-07-10T05:17:20.633Z,2.37
2018-07-10T05:19:48.942Z,3.37
2018-07-10T05:22:17.236Z,2.60
2018-07-10T05:24:45.814Z,2.33
2018-07-10T05:27:14.457Z,1.87
2018-07-10T05:29:42.678Z,2.90
2018-07-10T05:32:11.961Z,2.60
2018-07-10T05:34:40.477Z,2.13
2018-07-10T05:37:12.338Z,2.53
2018-07-10T05:39:41.726Z,2.73
2018-07-10T05:42:10.080Z,2.43
2018-07-10T05:44:38.486Z,2.27
2018-07-10T05:47:06.843Z,2.50
2018-07-10T05:49:38.883Z,2.37
2018-07-10T05:52:07.313Z,2.80
2018-07-10T05:54:37.617Z,2.30
2018-07-10T05:57:06.648Z,2.30
2018-07-10T05:59:35.421Z,2.13
2018-07-10T06:02:03.744Z,1.90
2018-07-10T06:04:32.563Z,1.47
2018-07-10T06:07:01.513Z,1.60
2018-07-10T06:09:29.741Z,1.53
2018-07-10T06:11:57.920Z,1.90
2018-07-10T06:14:26.722Z,1.43
2018-07-10T06:16:55.019Z,1.43
2018-07-10T06:19:23.237Z,2.13
2018-07-10T06:21:52.173Z,2.47
2018-07-10T06:24:29.055Z,2.67
2018-07-10T06:26:58.958Z,2.43
2018-07-10T06:29:33.855Z,2.40
2018-07-10T06:32:02.144Z,2.20
2018-07-10T06:34:35.580Z,2.40
2018-07-10T06:37:06.719Z,2.27
2018-07-10T06:39:34.946Z,2.53
2018-07-10T06:42:10.473Z,2.60
2018-07-10T06:44:39.001Z,2.00
2018-07-10T06:47:26.993Z,2.13
2018-07-10T06:49:55.210Z,2.63
2018-07-10T06:52:23.633Z,2.80
2018-07-10T06:54:55.578Z,1.90
2018-07-10T06:57:25.709Z,2.80
2018-07-10T06:59:53.923Z,2.80
2018-07-10T07:02:22.195Z,2.00
2018-07-10T07:04:50.468Z,2.63
2018-07-10T07:07:18.493Z,2.57
2018-07-10T07:09:46.781Z,2.60
2018-07-10T07:12:14.987Z,1.70
2018-07-10T07:14:43.353Z,1.90
2018-07-10T07:17:11.913Z,1.90
2018-07-10T07:19:40.231Z,2.20
2018-07-10T07:22:08.449Z,2.03
2018-07-10T07:24:36.743Z,1.93
2018-07-10T07:27:05.083Z,1.50
2018-07-10T07:29:33.264Z,2.20
2018-07-10T07:32:01.225Z,1.80
2018-07-10T07:34:29.537Z,1.33
2018-07-10T07:36:57.919Z,1.77
2018-07-10T07:39:26.089Z,1.33
2018-07-10T07:41:54.306Z,1.50
2018-07-10T07:44:22.702Z,1.83
2018-07-10T07:46:50.981Z,1.07
2018-07-10T07:49:19.334Z,1.50
2018-07-10T07:51:47.693Z,2.67
2018-07-10T07:54:15.975Z,2.53
2018-07-10T07:56:44.259Z,2.30
2018-07-10T07:59:12.541Z,1.90
2018-07-10T08:01:40.931Z,2.07
2018-07-10T08:04:08.924Z,2.00
2018-07-10T08:06:37.229Z,1.60
2018-07-10T08:09:06.485Z,2.10
2018-07-10T08:11:34.780Z,1.57
2018-07-10T08:14:03.540Z,1.60
2018-07-10T08:16:31.827Z,2.00
2018-07-10T08:19:00.389Z,2.70
2018-07-10T08:21:28.637Z,1.50
2018-07-10T08:23:57.099Z,1.50
2018-07-10T08:26:25.209Z,2.57
2018-07-10T08:28:53.517Z,2.13
2018-07-10T08:31:21.789Z,2.47
2018-07-10T08:33:50.240Z,1.67
2018-07-10T08:36:18.397Z,1.70
2018-07-10T08:38:46.681Z,1.73
2018-07-10T08:41:23.930Z,1.80
2018-07-10T08:43:52.374Z,2.10
2018-07-10T08:46:25.591Z,1.80
2018-07-10T08:48:53.883Z,1.90
2018-07-10T08:51:22.226Z,1.50
2018-07-10T08:53:50.534Z,1.40
2018-07-10T08:56:18.799Z,2.00
2018-07-10T08:58:47.028Z,1.50
2018-07-10T09:01:15.317Z,1.27
2018-07-10T09:03:43.547Z,1.57
2018-07-10T09:06:11.827Z,1.23
2018-07-10T09:08:40.165Z,1.30
2018-07-10T09:11:08.203Z,1.40
2018-07-10T09:13:36.483Z,1.37
2018-07-10T09:16:04.695Z,1.40
2018-07-10T09:18:33.209Z,1.67
2018-07-10T09:21:01.325Z,1.30
2018-07-10T09:23:29.573Z,1.70
2018-07-10T09:26:00.254Z,1.40
2018-07-10T09:28:36.285Z,1.43
2018-07-10T09:31:05.355Z,1.83
2018-07-10T09:33:34.265Z,1.13
2018-07-10T09:36:03.451Z,1.17
2018-07-10T09:38:32.104Z,1.20
2018-07-10T09:41:00.299Z,1.10
2018-07-10T09:43:28.630Z,1.30
2018-07-10T09:45:57.730Z,1.07
2018-07-10T09:48:25.996Z,0.90
2018-07-10T09:50:54.318Z,0.93
2018-07-10T09:53:22.654Z,0.80
2018-07-10T09:55:50.928Z,0.90
2018-07-10T09:58:19.386Z,1.30
2018-07-10T10:00:53.376Z,1.13
2018-07-10T10:03:23.060Z,0.80
2018-07-10T10:05:51.344Z,1.00
2018-07-10T10:08:19.665Z,0.90
2018-07-10T10:10:47.914Z,0.70
2018-07-10T10:13:16.562Z,1.00
2018-07-10T10:15:44.838Z,1.15
2018-07-10T10:18:13.072Z,1.60
2018-07-10T10:20:42.075Z,1.50
2018-07-10T10:23:11.423Z,1.50
2018-07-10T10:25:42.264Z,1.57
2018-07-10T10:28:10.782Z,1.47
2018-07-10T10:30:40.282Z,1.30
2018-07-10T10:33:09.372Z,1.03
2018-07-10T10:35:37.635Z,1.07
2018-07-10T10:38:06.275Z,1.23
2018-07-10T10:40:38.605Z,1.37
2018-07-10T10:43:09.060Z,1.67
2018-07-10T10:45:39.590Z,1.67
2018-07-10T10:48:08.291Z,1.57
2018-07-10T10:50:37.402Z,1.47
2018-07-10T10:53:06.155Z,1.40
2018-07-10T10:55:35.329Z,1.90
2018-07-10T10:58:03.773Z,1.63
2018-07-10T11:00:32.264Z,1.20
2018-07-10T11:03:00.508Z,1.23
2018-07-10T11:05:29.109Z,1.00
2018-07-10T11:07:57.203Z,1.20
2018-07-10T11:10:25.502Z,1.37
2018-07-10T11:12:54.360Z,1.13
2018-07-10T11:15:22.565Z,1.20
2018-07-10T11:17:55.851Z,2.40
2018-07-10T11:20:27.148Z,1.47
2018-07-10T11:23:02.464Z,2.10
2018-07-10T11:25:36.658Z,2.00
2018-07-10T11:28:06.092Z,1.60
2018-07-10T11:30:34.597Z,1.53
2018-07-10T11:33:03.964Z,2.17
2018-07-10T11:35:32.570Z,1.30
2018-07-10T11:38:02.589Z,1.43
2018-07-10T11:40:31.334Z,1.50
2018-07-10T11:42:59.816Z,1.30
2018-07-10T11:45:28.068Z,1.30
2018-07-10T11:47:56.278Z,1.30
2018-07-10T11:50:24.543Z,1.20
2018-07-10T11:52:53.126Z,1.33
2018-07-10T11:55:21.374Z,1.10
2018-07-10T11:57:49.440Z,1.00
2018-07-10T12:00:18.151Z,1.13
2018-07-10T12:02:47.441Z,1.30
2018-07-10T12:05:17.186Z,1.10
2018-07-10T12:07:52.600Z,1.40
2018-07-10T12:10:21.956Z,1.80
2018-07-10T12:12:51.115Z,2.00
2018-07-10T12:15:20.141Z,1.53
2018-07-10T12:17:51.334Z,1.13
2018-07-10T12:20:25.029Z,1.73
2018-07-10T12:22:53.255Z,1.47
2018-07-10T12:25:21.465Z,0.97
2018-07-10T12:27:49.745Z,1.50
2018-07-10T12:30:17.968Z,1.20
2018-07-10T12:32:46.261Z,1.47
2018-07-10T12:35:14.530Z,1.40
2018-07-10T12:37:42.774Z,1.07
2018-07-10T12:40:11.295Z,1.37
2018-07-10T12:42:40.502Z,0.97
2018-07-10T12:45:09.808Z,1.23
2018-07-10T12:47:38.000Z,1.23
2018-07-10T12:50:06.597Z,1.13
2018-07-10T12:52:34.865Z,0.93
2018-07-10T12:55:02.823Z,1.27
2018-07-10T12:57:35.130Z,1.00
2018-07-10T13:00:04.037Z,1.20
2018-07-10T13:02:34.377Z,1.50
2018-07-10T13:05:03.591Z,1.20
2018-07-10T13:07:32.247Z,1.50
2018-07-10T13:10:00.512Z,1.00
2018-07-10T13:12:28.865Z,1.00
2018-07-10T13:14:57.187Z,1.50
2018-07-10T13:17:25.893Z,1.27
2018-07-10T13:19:55.985Z,1.40
2018-07-10T13:22:24.313Z,1.43
2018-07-10T13:24:52.587Z,1.30
2018-07-10T13:27:20.829Z,1.67
2018-07-10T13:29:49.433Z,1.07
2018-07-10T13:32:17.713Z,1.30
2018-07-10T13:34:46.187Z,1.27
2018-07-10T13:37:14.169Z,1.03
2018-07-10T13:39:43.119Z,1.53
2018-07-10T13:42:11.334Z,1.30
2018-07-10T13:44:39.717Z,1.60
2018-07-10T13:47:08.020Z,1.60
2018-07-10T13:49:36.612Z,1.60
2018-07-10T13:52:04.809Z,1.67
2018-07-10T13:54:33.057Z,1.90
2018-07-10T13:57:01.520Z,1.90
2018-07-10T13:59:29.786Z,1.63
2018-07-10T14:01:58.102Z,2.17
2018-07-10T14:04:26.306Z,1.40
2018-07-10T14:06:54.576Z,1.67
2018-07-10T14:09:22.882Z,1.53
2018-07-10T14:11:51.115Z,1.70
2018-07-10T14:14:19.396Z,1.87
2018-07-10T14:16:47.673Z,1.40
2018-07-10T14:19:15.970Z,1.93
2018-07-10T14:21:44.543Z,1.67
2018-07-10T14:24:12.776Z,1.70
2018-07-10T14:26:41.055Z,1.80
2018-07-10T14:29:09.308Z,1.60
2018-07-10T14:31:37.550Z,1.60
2018-07-10T14:34:05.909Z,1.53
2018-07-10T14:36:34.122Z,1.57
2018-07-10T14:39:02.350Z,2.27
2018-07-10T14:41:30.636Z,1.50
2018-07-10T14:44:00.118Z,1.07
2018-07-10T14:46:28.155Z,1.30
2018-07-10T14:48:58.896Z,1.30
2018-07-10T14:51:28.356Z,1.30
2018-07-10T14:53:56.554Z,1.60
2018-07-10T14:56:24.953Z,1.40
2018-07-10T14:58:53.311Z,1.30
2018-07-10T15:01:21.669Z,1.40
2018-07-10T15:03:49.965Z,1.60
2018-07-10T15:06:18.257Z,1.53
2018-07-10T15:08:46.511Z,1.67
2018-07-10T15:11:14.731Z,1.23
2018-07-10T15:13:54.340Z,2.03
2018-07-10T15:16:22.581Z,1.57
2018-07-10T15:18:51.915Z,1.40
2018-07-10T15:21:21.851Z,1.90
2018-07-10T15:23:50.139Z,2.07
2018-07-10T15:26:18.416Z,2.00
2018-07-10T15:28:46.633Z,1.87
2018-07-10T15:31:14.849Z,1.30
2018-07-10T15:33:43.118Z,2.63
2018-07-10T15:36:11.413Z,1.53
2018-07-10T15:38:39.630Z,1.00
2018-07-10T15:41:07.840Z,1.33
2018-07-10T15:43:36.139Z,1.00
2018-07-10T15:46:04.323Z,1.00
2018-07-10T15:48:32.885Z,1.93
2018-07-10T15:51:01.070Z,1.90
2018-07-10T15:53:29.328Z,1.27
2018-07-10T15:55:57.597Z,1.10
2018-07-10T15:58:25.855Z,1.27
2018-07-10T16:00:54.143Z,1.47
2018-07-10T16:03:22.500Z,1.30
2018-07-10T16:05:50.814Z,1.23
2018-07-10T16:08:19.998Z,0.90
2018-07-10T16:10:52.423Z,1.50
2018-07-10T16:13:21.040Z,1.20
2018-07-10T16:15:51.857Z,0.90
2018-07-10T16:18:21.700Z,1.20
2018-07-10T16:20:49.914Z,1.17
2018-07-10T16:23:18.188Z,1.27
2018-07-10T16:25:47.303Z,1.10
2018-07-10T16:28:17.519Z,1.30
2018-07-10T16:30:47.903Z,1.10
2018-07-10T16:33:21.417Z,1.13
2018-07-10T16:35:49.701Z,1.00
2018-07-10T16:38:18.141Z,0.93
2018-07-10T16:40:49.968Z,1.10
2018-07-10T16:43:24.315Z,1.03
2018-07-10T16:45:53.308Z,1.30
2018-07-10T16:48:30.091Z,1.20
2018-07-10T16:51:04.895Z,0.80
2018-07-10T16:53:33.919Z,1.13
2018-07-10T16:56:02.413Z,0.90
2018-07-10T16:58:32.899Z,1.03
2018-07-10T17:01:01.681Z,1.13
2018-07-10T17:03:29.975Z,1.47
2018-07-10T17:05:58.631Z,0.90
2018-07-10T17:08:26.813Z,1.77
2018-07-10T17:10:55.183Z,1.17
2018-07-10T17:13:23.365Z,1.03
2018-07-10T17:15:51.662Z,1.33
2018-07-10T17:18:20.045Z,1.37
2018-07-10T17:20:50.159Z,0.90
2018-07-10T17:23:18.601Z,1.20
2018-07-10T17:25:47.288Z,1.10
2018-07-10T17:28:16.222Z,1.30
2018-07-10T17:30:44.505Z,1.20
2018-07-10T17:33:12.776Z,1.93
2018-07-10T17:35:40.942Z,1.30
2018-07-10T17:38:09.207Z,0.93
2018-07-10T17:40:38.133Z,0.90
2018-07-10T17:43:07.607Z,1.10
2018-07-10T17:45:35.551Z,1.13
2018-07-10T17:48:03.758Z,0.97
2018-07-10T17:50:32.069Z,1.30
2018-07-10T17:53:00.299Z,1.07
2018-07-10T17:55:28.509Z,1.30
2018-07-10T17:57:58.376Z,1.60
2018-07-10T18:00:26.604Z,1.10
2018-07-10T18:02:55.244Z,1.00
2018-07-10T18:05:23.517Z,1.60
2018-07-10T18:07:51.949Z,1.07
2018-07-10T18:10:20.193Z,0.90
2018-07-10T18:12:48.465Z,1.00
2018-07-10T18:15:16.676Z,1.23
2018-07-10T18:17:44.930Z,1.33
2018-07-10T18:20:13.298Z,1.20
2018-07-10T18:22:41.585Z,1.17
2018-07-10T18:25:09.838Z,1.40
2018-07-10T18:27:38.249Z,1.60
2018-07-10T18:30:06.744Z,1.40
2018-07-10T18:32:34.979Z,1.40
2018-07-10T18:35:03.256Z,1.10
2018-07-10T18:37:31.500Z,1.90
2018-07-10T18:39:59.793Z,1.20
2018-07-10T18:42:28.103Z,1.27
2018-07-10T18:44:56.572Z,1.97
2018-07-10T18:47:24.803Z,1.30
2018-07-10T18:49:55.285Z,1.20
2018-07-10T18:52:25.820Z,1.23
2018-07-10T18:54:54.301Z,1.43
2018-07-10T18:59:33.678Z,1.30
2018-07-10T19:02:05.764Z,1.30
2018-07-10T19:05:10.960Z,1.50
2018-07-10T19:07:40.820Z,1.40
2018-07-10T19:10:09.186Z,1.40
2018-07-10T19:12:37.983Z,1.50
2018-07-10T19:15:06.123Z,2.03
2018-07-10T19:17:34.597Z,1.40
2018-07-10T19:20:07.728Z,1.73
2018-07-10T19:22:46.007Z,1.93
2018-07-10T19:25:14.980Z,1.93
2018-07-10T19:27:45.018Z,1.40
2018-07-10T19:30:13.274Z,1.60
2018-07-10T19:32:41.482Z,2.60
2018-07-10T19:35:10.010Z,1.37
2018-07-10T19:37:38.580Z,1.90
2018-07-10T19:40:07.216Z,1.97
2018-07-10T19:42:36.976Z,2.30
2018-07-10T19:45:05.594Z,1.50
2018-07-10T19:47:33.988Z,1.57
2018-07-10T19:50:19.719Z,2.47
2018-07-10T19:52:52.575Z,2.27
2018-07-10T19:55:22.032Z,2.37
2018-07-10T19:58:10.921Z,2.23
2018-07-10T20:00:44.130Z,1.70
2018-07-10T20:03:27.716Z,2.50
2018-07-10T20:06:01.082Z,2.60
2018-07-10T20:08:29.364Z,2.50
2018-07-10T20:10:59.784Z,2.90
2018-07-10T20:13:39.275Z,2.60
2018-07-10T20:16:16.110Z,2.30
2018-07-10T20:21:10.046Z,2.60
2018-07-10T20:24:00.586Z,2.70
2018-07-10T20:26:35.051Z,3.30
2018-07-10T20:29:15.117Z,2.80
2018-07-10T20:32:04.709Z,2.80
2018-07-10T20:35:16.135Z,2.80
2018-07-10T20:37:45.928Z,2.83
2018-07-10T20:40:18.282Z,3.50
2018-07-10T20:42:46.511Z,3.50
2018-07-10T20:45:14.751Z,2.30
2018-07-10T20:47:52.427Z,2.40
2018-07-10T20:50:32.679Z,2.10
2018-07-10T20:55:15.208Z,2.40
2018-07-10T20:57:56.250Z,2.37
2018-07-10T21:00:24.959Z,2.30
2018-07-10T21:03:06.499Z,3.10
2018-07-10T21:05:37.708Z,3.00
2018-07-10T21:08:10.927Z,2.60
2018-07-10T21:10:46.401Z,2.90
2018-07-10T21:14:02.947Z,2.83
2018-07-10T21:16:42.275Z,2.50
2018-07-10T21:19:51.967Z,2.97
2018-07-10T21:24:34.658Z,2.60
2018-07-10T21:27:06.241Z,2.50
2018-07-10T21:29:46.627Z,2.40
2018-07-10T21:32:25.885Z,3.03
2018-07-10T21:34:54.173Z,3.57
2018-07-10T21:39:35.975Z,2.70
2018-07-10T21:42:18.438Z,2.50
2018-07-10T21:44:56.903Z,2.43
2018-07-10T21:47:36.695Z,3.73
2018-07-10T21:50:04.907Z,2.07
2018-07-10T21:52:33.382Z,2.47
2018-07-10T21:55:01.675Z,3.70
2018-07-10T21:57:38.335Z,3.27
2018-07-10T22:00:06.648Z,3.27
2018-07-10T22:02:34.922Z,3.30
2018-07-10T22:05:03.244Z,3.00
2018-07-10T22:07:31.443Z,2.60
2018-07-10T22:10:07.493Z,2.90
2018-07-10T22:12:40.383Z,2.70
2018-07-10T22:15:08.629Z,2.07
2018-07-10T22:17:38.630Z,2.17
2018-07-10T22:20:08.079Z,2.47
2018-07-10T22:22:36.298Z,2.53
2018-07-10T22:25:06.070Z,2.53
2018-07-10T22:27:35.831Z,3.00
2018-07-10T22:30:09.314Z,2.60
2018-07-10T22:32:44.450Z,2.40
2018-07-10T22:35:13.142Z,1.70
2018-07-10T22:37:41.350Z,2.40
2018-07-10T22:40:09.904Z,1.80
2018-07-10T22:42:38.559Z,1.93
2018-07-10T22:45:06.884Z,2.47
2018-07-10T22:47:37.700Z,2.27
2018-07-10T22:50:08.082Z,2.70
2018-07-10T22:52:47.020Z,2.60
2018-07-10T22:55:18.530Z,2.00
2018-07-10T22:57:47.141Z,2.33
2018-07-10T23:00:19.541Z,2.67
2018-07-10T23:02:47.786Z,2.00
2018-07-10T23:05:16.063Z,2.07
2018-07-10T23:07:44.320Z,2.80
2018-07-10T23:10:12.573Z,2.90
2018-07-10T23:12:40.861Z,2.53
2018-07-10T23:15:09.141Z,1.53
2018-07-10T23:17:37.459Z,2.80
2018-07-10T23:20:05.741Z,2.60
2018-07-10T23:22:45.154Z,2.33
2018-07-10T23:25:13.437Z,2.47
2018-07-10T23:27:41.805Z,2.40
2018-07-10T23:30:10.063Z,2.60
2018-07-10T23:32:38.357Z,2.40
2018-07-10T23:35:06.651Z,2.23
2018-07-10T23:37:37.526Z,2.53
2018-07-10T23:40:06.711Z,2.70
2018-07-10T23:42:35.245Z,2.30
2018-07-10T23:45:12.609Z,2.40
2018-07-10T23:47:41.141Z,2.83
2018-07-10T23:50:17.261Z,2.60
2018-07-10T23:52:56.701Z,3.20
2018-07-10T23:55:25.022Z,1.93
2018-07-10T23:57:53.228Z,4.67
